createdAt,value
2017-12-04T00:00:16.961Z,1016.84
2017-12-04T00:01:16.931Z,1016.83
2017-12-04T00:02:16.919Z,1016.86
2017-12-04T00:03:16.907Z,1016.87
2017-12-04T00:04:16.913Z,1016.83
2017-12-04T00:05:16.885Z,1016.84
2017-12-04T00:06:16.874Z,1016.78
2017-12-04T00:07:16.860Z,1016.79
2017-12-04T00:08:16.847Z,1016.77
2017-12-04T00:09:16.836Z,1016.75
2017-12-04T00:10:16.825Z,1016.78
2017-12-04T00:11:16.813Z,1016.80
2017-12-04T00:12:16.800Z,1016.80
2017-12-04T00:13:16.790Z,1016.79
2017-12-04T00:14:16.776Z,1016.82
2017-12-04T00:15:16.766Z,1016.83
2017-12-04T00:16:16.758Z,1016.82
2017-12-04T00:17:16.744Z,1016.83
2017-12-04T00:18:16.733Z,1016.86
2017-12-04T00:19:16.719Z,1016.88
2017-12-04T00:20:16.707Z,1016.87
2017-12-04T00:21:16.696Z,1016.95
2017-12-04T00:22:16.684Z,1016.95
2017-12-04T00:23:16.672Z,1016.95
2017-12-04T00:24:16.660Z,1016.90
2017-12-04T00:25:16.655Z,1016.90
2017-12-04T00:26:16.644Z,1016.95
2017-12-04T00:27:16.631Z,1016.90
2017-12-04T00:28:16.613Z,1016.94
2017-12-04T00:29:16.602Z,1016.90
2017-12-04T00:30:16.592Z,1016.96
2017-12-04T00:31:16.588Z,1016.89
2017-12-04T00:32:16.570Z,1016.90
2017-12-04T00:33:16.564Z,1016.89
2017-12-04T00:34:16.546Z,1016.95
2017-12-04T00:35:16.530Z,1016.95
2017-12-04T00:36:16.521Z,1016.93
2017-12-04T00:37:16.510Z,1016.94
2017-12-04T00:38:16.497Z,1016.96
2017-12-04T00:39:16.486Z,1016.98
2017-12-04T00:40:16.474Z,1016.92
2017-12-04T00:41:16.470Z,1016.88
2017-12-04T00:42:16.452Z,1016.92
2017-12-04T00:43:16.439Z,1016.91
2017-12-04T00:44:16.428Z,1016.91
2017-12-04T00:45:16.424Z,1016.88
2017-12-04T00:46:16.403Z,1016.88
2017-12-04T00:47:16.393Z,1016.91
2017-12-04T00:48:16.381Z,1016.88
2017-12-04T00:49:16.370Z,1016.96
2017-12-04T00:50:16.357Z,1016.90
2017-12-04T00:51:16.349Z,1016.94
2017-12-04T00:52:16.335Z,1016.89
2017-12-04T00:53:16.323Z,1016.89
2017-12-04T00:54:16.311Z,1016.93
2017-12-04T00:55:16.320Z,1016.98
2017-12-04T00:56:16.289Z,1016.98
2017-12-04T00:57:16.278Z,1017.02
2017-12-04T00:58:16.264Z,1016.99
2017-12-04T00:59:16.255Z,1017.02
2017-12-04T01:00:16.242Z,1017.00
2017-12-04T01:01:16.231Z,1017.01
2017-12-04T01:02:16.219Z,1017.00
2017-12-04T01:03:16.217Z,1016.97
2017-12-04T01:04:16.196Z,1016.97
2017-12-04T01:05:16.185Z,1017.02
2017-12-04T01:06:16.172Z,1017.08
2017-12-04T01:07:16.161Z,1017.09
2017-12-04T01:08:16.149Z,1016.98
2017-12-04T01:09:16.142Z,1017.06
2017-12-04T01:10:16.128Z,1016.95
2017-12-04T01:11:16.117Z,1016.90
2017-12-04T01:12:16.104Z,1016.91
2017-12-04T01:13:16.091Z,1016.92
2017-12-04T01:14:16.078Z,1017.01
2017-12-04T01:15:16.070Z,1017.05
2017-12-04T01:16:16.057Z,1017.12
2017-12-04T01:17:16.045Z,1017.14
2017-12-04T01:18:16.034Z,1017.15
2017-12-04T01:19:16.023Z,1017.18
2017-12-04T01:20:16.011Z,1017.18
2017-12-04T01:21:16.003Z,1017.19
2017-12-04T01:22:15.986Z,1017.15
2017-12-04T01:23:15.975Z,1017.20
2017-12-04T01:24:15.966Z,1017.20
2017-12-04T01:25:15.951Z,1017.18
2017-12-04T01:26:15.939Z,1017.21
2017-12-04T01:27:15.932Z,1017.21
2017-12-04T01:28:15.915Z,1017.15
2017-12-04T01:29:15.904Z,1017.18
2017-12-04T01:30:15.898Z,1017.14
2017-12-04T01:31:15.883Z,1017.11
2017-12-04T01:32:15.874Z,1017.11
2017-12-04T01:33:15.862Z,1017.10
2017-12-04T01:34:15.848Z,1017.06
2017-12-04T01:35:15.844Z,1017.05
2017-12-04T01:36:15.824Z,1017.06
2017-12-04T01:37:15.812Z,1017.12
2017-12-04T01:38:15.798Z,1017.16
2017-12-04T01:39:15.789Z,1017.15
2017-12-04T01:40:15.791Z,1017.21
2017-12-04T01:41:15.764Z,1017.24
2017-12-04T01:42:15.754Z,1017.26
2017-12-04T01:43:15.744Z,1017.28
2017-12-04T01:44:15.770Z,1017.30
2017-12-04T01:45:15.719Z,1017.37
2017-12-04T01:46:15.709Z,1017.41
2017-12-04T01:47:15.707Z,1017.39
2017-12-04T01:48:15.686Z,1017.39
2017-12-04T01:49:15.673Z,1017.36
2017-12-04T01:50:15.663Z,1017.34
2017-12-04T01:51:15.651Z,1017.34
2017-12-04T01:52:15.639Z,1017.37
2017-12-04T01:53:15.629Z,1017.36
2017-12-04T01:54:15.618Z,1017.35
2017-12-04T01:55:15.610Z,1017.32
2017-12-04T01:56:15.593Z,1017.37
2017-12-04T01:57:15.582Z,1017.38
2017-12-04T01:58:15.570Z,1017.39
2017-12-04T01:59:15.559Z,1017.39
2017-12-04T02:00:15.546Z,1017.41
2017-12-04T02:01:15.537Z,1017.42
2017-12-04T02:02:15.525Z,1017.43
2017-12-04T02:03:15.514Z,1017.40
2017-12-04T02:04:15.503Z,1017.38
2017-12-04T02:05:15.490Z,1017.43
2017-12-04T02:06:15.479Z,1017.36
2017-12-04T02:07:15.469Z,1017.35
2017-12-04T02:08:15.458Z,1017.38
2017-12-04T02:09:15.445Z,1017.36
2017-12-04T02:10:15.434Z,1017.40
2017-12-04T02:11:15.422Z,1017.44
2017-12-04T02:12:15.413Z,1017.38
2017-12-04T02:13:15.414Z,1017.35
2017-12-04T02:14:15.393Z,1017.37
2017-12-04T02:15:15.388Z,1017.32
2017-12-04T02:16:15.367Z,1017.32
2017-12-04T02:17:15.357Z,1017.28
2017-12-04T02:18:15.342Z,1017.29
2017-12-04T02:19:15.334Z,1017.27
2017-12-04T02:20:15.321Z,1017.26
2017-12-04T02:21:15.326Z,1017.27
2017-12-04T02:22:15.297Z,1017.30
2017-12-04T02:23:15.286Z,1017.30
2017-12-04T02:24:15.275Z,1017.33
2017-12-04T02:25:15.265Z,1017.31
2017-12-04T02:26:15.273Z,1017.32
2017-12-04T02:27:15.243Z,1017.36
2017-12-04T02:28:15.266Z,1017.32
2017-12-04T02:29:15.219Z,1017.32
2017-12-04T02:30:15.210Z,1017.33
2017-12-04T02:31:15.196Z,1017.36
2017-12-04T02:32:15.187Z,1017.33
2017-12-04T02:33:15.174Z,1017.29
2017-12-04T02:34:15.160Z,1017.28
2017-12-04T02:35:15.151Z,1017.29
2017-12-04T02:36:15.139Z,1017.32
2017-12-04T02:37:15.130Z,1017.34
2017-12-04T02:38:15.116Z,1017.32
2017-12-04T02:39:15.107Z,1017.32
2017-12-04T02:40:15.093Z,1017.33
2017-12-04T02:41:15.082Z,1017.36
2017-12-04T02:42:15.070Z,1017.40
2017-12-04T02:43:15.065Z,1017.32
2017-12-04T02:44:15.049Z,1017.35
2017-12-04T02:45:15.036Z,1017.32
2017-12-04T02:46:15.026Z,1017.32
2017-12-04T02:47:15.014Z,1017.31
2017-12-04T02:48:15.002Z,1017.28
2017-12-04T02:49:14.993Z,1017.29
2017-12-04T02:50:14.983Z,1017.26
2017-12-04T02:51:14.968Z,1017.27
2017-12-04T02:52:14.958Z,1017.26
2017-12-04T02:53:14.954Z,1017.23
2017-12-04T02:54:14.943Z,1017.25
2017-12-04T02:55:14.923Z,1017.26
2017-12-04T02:56:14.912Z,1017.26
2017-12-04T02:57:14.906Z,1017.27
2017-12-04T02:58:14.890Z,1017.32
2017-12-04T02:59:14.878Z,1017.27
2017-12-04T03:00:14.870Z,1017.30
2017-12-04T03:01:14.858Z,1017.26
2017-12-04T03:02:14.844Z,1017.27
2017-12-04T03:03:14.835Z,1017.30
2017-12-04T03:04:14.821Z,1017.30
2017-12-04T03:05:14.812Z,1017.28
2017-12-04T03:06:14.802Z,1017.28
2017-12-04T03:07:14.786Z,1017.31
2017-12-04T03:08:14.780Z,1017.33
2017-12-04T03:09:14.765Z,1017.33
2017-12-04T03:10:14.753Z,1017.35
2017-12-04T03:11:14.741Z,1017.35
2017-12-04T03:12:14.732Z,1017.28
2017-12-04T03:13:14.720Z,1017.31
2017-12-04T03:14:14.710Z,1017.29
2017-12-04T03:15:14.697Z,1017.32
2017-12-04T03:16:14.687Z,1017.26
2017-12-04T03:17:14.699Z,1017.27
2017-12-04T03:18:14.663Z,1017.29
2017-12-04T03:19:14.655Z,1017.30
2017-12-04T03:20:14.642Z,1017.28
2017-12-04T03:21:14.636Z,1017.31
2017-12-04T03:22:14.619Z,1017.35
2017-12-04T03:23:14.607Z,1017.30
2017-12-04T03:24:14.597Z,1017.31
2017-12-04T03:25:14.585Z,1017.28
2017-12-04T03:26:14.578Z,1017.24
2017-12-04T03:27:14.564Z,1017.27
2017-12-04T03:28:14.552Z,1017.21
2017-12-04T03:29:14.540Z,1017.26
2017-12-04T03:30:14.532Z,1017.29
2017-12-04T03:31:14.517Z,1017.30
2017-12-04T03:32:14.506Z,1017.27
2017-12-04T03:33:14.493Z,1017.23
2017-12-04T03:34:14.483Z,1017.30
2017-12-04T03:35:14.473Z,1017.28
2017-12-04T03:36:14.467Z,1017.25
2017-12-04T03:37:14.452Z,1017.21
2017-12-04T03:38:14.439Z,1017.24
2017-12-04T03:39:14.427Z,1017.22
2017-12-04T03:40:14.416Z,1017.25
2017-12-04T03:41:14.407Z,1017.26
2017-12-04T03:42:14.392Z,1017.24
2017-12-04T03:43:14.379Z,1017.29
2017-12-04T03:44:14.371Z,1017.27
2017-12-04T03:45:14.364Z,1017.31
2017-12-04T03:46:14.347Z,1017.20
2017-12-04T03:47:14.338Z,1017.27
2017-12-04T03:48:14.325Z,1017.32
2017-12-04T03:49:14.352Z,1017.30
2017-12-04T03:50:14.302Z,1017.28
2017-12-04T03:51:14.295Z,1017.25
2017-12-04T03:52:14.282Z,1017.24
2017-12-04T03:53:14.271Z,1017.26
2017-12-04T03:54:14.261Z,1017.31
2017-12-04T03:55:14.252Z,1017.30
2017-12-04T03:56:14.236Z,1017.32
2017-12-04T03:57:14.230Z,1017.33
2017-12-04T03:58:14.218Z,1017.33
2017-12-04T03:59:14.202Z,1017.34
2017-12-04T04:00:14.192Z,1017.34
2017-12-04T04:01:14.180Z,1017.30
2017-12-04T04:02:14.167Z,1017.36
2017-12-04T04:03:14.157Z,1017.37
2017-12-04T04:04:14.144Z,1017.37
2017-12-04T04:05:14.135Z,1017.44
2017-12-04T04:06:14.132Z,1017.42
2017-12-04T04:07:14.112Z,1017.36
2017-12-04T04:08:14.101Z,1017.34
2017-12-04T04:09:14.089Z,1017.38
2017-12-04T04:10:14.079Z,1017.35
2017-12-04T04:11:14.067Z,1017.38
2017-12-04T04:12:14.054Z,1017.38
2017-12-04T04:13:14.044Z,1017.37
2017-12-04T04:14:14.051Z,1017.38
2017-12-04T04:15:14.022Z,1017.34
2017-12-04T04:16:14.009Z,1017.38
2017-12-04T04:17:14.000Z,1017.38
2017-12-04T04:18:13.986Z,1017.40
2017-12-04T04:19:13.975Z,1017.42
2017-12-04T04:20:13.966Z,1017.45
2017-12-04T04:21:13.955Z,1017.45
2017-12-04T04:22:13.942Z,1017.44
2017-12-04T04:23:13.933Z,1017.44
2017-12-04T04:24:13.921Z,1017.42
2017-12-04T04:25:13.910Z,1017.41
2017-12-04T04:26:13.902Z,1017.43
2017-12-04T04:27:13.887Z,1017.44
2017-12-04T04:28:13.874Z,1017.42
2017-12-04T04:29:13.865Z,1017.42
2017-12-04T04:30:13.854Z,1017.39
2017-12-04T04:31:13.840Z,1017.44
2017-12-04T04:32:13.832Z,1017.42
2017-12-04T04:33:13.818Z,1017.42
2017-12-04T04:34:13.809Z,1017.42
2017-12-04T04:35:13.796Z,1017.40
2017-12-04T04:36:13.787Z,1017.44
2017-12-04T04:37:13.772Z,1017.40
2017-12-04T04:38:13.763Z,1017.35
2017-12-04T04:39:13.752Z,1017.39
2017-12-04T04:40:13.740Z,1017.36
2017-12-04T04:41:13.732Z,1017.37
2017-12-04T04:42:13.719Z,1017.38
2017-12-04T04:43:13.706Z,1017.37
2017-12-04T04:44:13.696Z,1017.39
2017-12-04T04:45:13.688Z,1017.40
2017-12-04T04:46:13.674Z,1017.41
2017-12-04T04:47:13.671Z,1017.45
2017-12-04T04:48:13.653Z,1017.41
2017-12-04T04:49:13.641Z,1017.42
2017-12-04T04:50:13.628Z,1017.39
2017-12-04T04:51:13.625Z,1017.41
2017-12-04T04:52:13.606Z,1017.41
2017-12-04T04:53:13.598Z,1017.41
2017-12-04T04:54:13.584Z,1017.44
2017-12-04T04:55:13.580Z,1017.44
2017-12-04T04:56:13.561Z,1017.48
2017-12-04T04:57:13.551Z,1017.52
2017-12-04T04:58:13.540Z,1017.52
2017-12-04T04:59:13.529Z,1017.47
2017-12-04T05:00:13.517Z,1017.48
2017-12-04T05:01:13.504Z,1017.53
2017-12-04T05:02:13.492Z,1017.50
2017-12-04T05:03:13.482Z,1017.51
2017-12-04T05:04:13.475Z,1017.51
2017-12-04T05:05:13.461Z,1017.51
2017-12-04T05:06:13.449Z,1017.50
2017-12-04T05:07:13.438Z,1017.49
2017-12-04T05:08:13.426Z,1017.50
2017-12-04T05:09:13.467Z,1017.48
2017-12-04T05:10:13.405Z,1017.50
2017-12-04T05:11:13.393Z,1017.50
2017-12-04T05:12:13.382Z,1017.54
2017-12-04T05:13:13.375Z,1017.51
2017-12-04T05:14:13.359Z,1017.54
2017-12-04T05:15:13.348Z,1017.52
2017-12-04T05:16:13.338Z,1017.51
2017-12-04T05:17:13.330Z,1017.50
2017-12-04T05:18:13.313Z,1017.56
2017-12-04T05:19:13.303Z,1017.59
2017-12-04T05:20:13.295Z,1017.58
2017-12-04T05:21:13.283Z,1017.61
2017-12-04T05:22:13.272Z,1017.62
2017-12-04T05:23:13.260Z,1017.63
2017-12-04T05:24:13.269Z,1017.60
2017-12-04T05:25:13.239Z,1017.65
2017-12-04T05:26:13.226Z,1017.65
2017-12-04T05:27:13.214Z,1017.65
2017-12-04T05:28:13.208Z,1017.63
2017-12-04T05:29:13.193Z,1017.65
2017-12-04T05:30:13.185Z,1017.65
2017-12-04T05:31:13.169Z,1017.64
2017-12-04T05:32:13.159Z,1017.64
2017-12-04T05:33:13.148Z,1017.65
2017-12-04T05:34:13.136Z,1017.67
2017-12-04T05:35:13.128Z,1017.67
2017-12-04T05:36:13.116Z,1017.65
2017-12-04T05:37:13.104Z,1017.69
2017-12-04T05:38:13.097Z,1017.69
2017-12-04T05:39:13.084Z,1017.67
2017-12-04T05:40:13.071Z,1017.68
2017-12-04T05:41:13.063Z,1017.68
2017-12-04T05:42:13.065Z,1017.66
2017-12-04T05:43:13.036Z,1017.68
2017-12-04T05:44:13.025Z,1017.66
2017-12-04T05:45:13.016Z,1017.62
2017-12-04T05:46:13.006Z,1017.61
2017-12-04T05:47:12.993Z,1017.59
2017-12-04T05:48:12.981Z,1017.59
2017-12-04T05:49:12.972Z,1017.58
2017-12-04T05:50:12.959Z,1017.60
2017-12-04T05:51:12.949Z,1017.62
2017-12-04T05:52:12.940Z,1017.60
2017-12-04T05:53:12.942Z,1017.55
2017-12-04T05:54:12.914Z,1017.61
2017-12-04T05:55:12.904Z,1017.62
2017-12-04T05:56:12.895Z,1017.60
2017-12-04T05:57:12.884Z,1017.64
2017-12-04T05:58:12.870Z,1017.57
2017-12-04T05:59:12.864Z,1017.61
2017-12-04T06:00:12.849Z,1017.65
2017-12-04T06:01:12.838Z,1017.62
2017-12-04T06:02:12.826Z,1017.65
2017-12-04T06:03:12.817Z,1017.63
2017-12-04T06:04:12.806Z,1017.68
2017-12-04T06:05:12.796Z,1017.74
2017-12-04T06:06:12.782Z,1017.72
2017-12-04T06:07:12.772Z,1017.76
2017-12-04T06:08:12.761Z,1017.80
2017-12-04T06:09:12.752Z,1017.85
2017-12-04T06:10:12.741Z,1017.85
2017-12-04T06:11:12.734Z,1017.88
2017-12-04T06:12:12.717Z,1017.83
2017-12-04T06:13:12.708Z,1017.83
2017-12-04T06:14:12.736Z,1017.81
2017-12-04T06:15:12.687Z,1017.88
2017-12-04T06:16:12.673Z,1017.87
2017-12-04T06:17:12.666Z,1017.92
2017-12-04T06:18:12.650Z,1017.92
2017-12-04T06:19:12.641Z,1017.94
2017-12-04T06:20:12.629Z,1017.94
2017-12-04T06:21:12.617Z,1017.98
2017-12-04T06:22:12.607Z,1018.02
2017-12-04T06:23:12.594Z,1017.98
2017-12-04T06:24:12.586Z,1017.98
2017-12-04T06:25:12.575Z,1018.00
2017-12-04T06:26:12.562Z,1018.03
2017-12-04T06:27:12.550Z,1018.02
2017-12-04T06:28:12.544Z,1018.01
2017-12-04T06:29:12.549Z,1018.02
2017-12-04T06:30:12.517Z,1017.99
2017-12-04T06:31:12.507Z,1018.05
2017-12-04T06:32:12.497Z,1018.06
2017-12-04T06:33:12.485Z,1018.03
2017-12-04T06:34:12.480Z,1018.05
2017-12-04T06:35:12.462Z,1018.08
2017-12-04T06:36:12.455Z,1018.05
2017-12-04T06:37:12.440Z,1018.02
2017-12-04T06:38:12.431Z,1018.05
2017-12-04T06:39:12.418Z,1018.04
2017-12-04T06:40:12.408Z,1018.02
2017-12-04T06:41:12.396Z,1018.02
2017-12-04T06:42:12.391Z,1018.06
2017-12-04T06:43:12.375Z,1018.03
2017-12-04T06:44:12.362Z,1018.06
2017-12-04T06:45:12.354Z,1018.07
2017-12-04T06:46:12.342Z,1018.09
2017-12-04T06:47:12.329Z,1018.10
2017-12-04T06:48:12.318Z,1018.11
2017-12-04T06:49:12.308Z,1018.15
2017-12-04T06:50:12.302Z,1018.21
2017-12-04T06:51:12.287Z,1018.21
2017-12-04T06:52:12.277Z,1018.22
2017-12-04T06:53:12.264Z,1018.17
2017-12-04T06:54:12.253Z,1018.17
2017-12-04T06:55:12.243Z,1018.22
2017-12-04T06:56:12.232Z,1018.21
2017-12-04T06:57:12.225Z,1018.21
2017-12-04T06:58:12.211Z,1018.20
2017-12-04T06:59:12.199Z,1018.21
2017-12-04T07:00:12.187Z,1018.27
2017-12-04T07:01:12.176Z,1018.27
2017-12-04T07:02:12.167Z,1018.27
2017-12-04T07:03:12.153Z,1018.24
2017-12-04T07:04:12.148Z,1018.23
2017-12-04T07:05:12.132Z,1018.30
2017-12-04T07:06:12.124Z,1018.26
2017-12-04T07:07:12.120Z,1018.31
2017-12-04T07:08:12.104Z,1018.31
2017-12-04T07:09:12.095Z,1018.34
2017-12-04T07:10:12.077Z,1018.39
2017-12-04T07:11:12.067Z,1018.41
2017-12-04T07:12:12.060Z,1018.42
2017-12-04T07:13:12.044Z,1018.42
2017-12-04T07:14:12.039Z,1018.48
2017-12-04T07:15:12.032Z,1018.49
2017-12-04T07:16:12.014Z,1018.47
2017-12-04T07:17:12.004Z,1018.51
2017-12-04T07:18:11.999Z,1018.51
2017-12-04T07:19:11.980Z,1018.50
2017-12-04T07:20:11.996Z,1018.57
2017-12-04T07:21:11.960Z,1018.52
2017-12-04T07:22:11.946Z,1018.52
2017-12-04T07:23:11.936Z,1018.47
2017-12-04T07:24:11.925Z,1018.49
2017-12-04T07:25:11.914Z,1018.49
2017-12-04T07:26:11.902Z,1018.50
2017-12-04T07:27:11.891Z,1018.52
2017-12-04T07:28:11.881Z,1018.55
2017-12-04T07:29:11.870Z,1018.52
2017-12-04T07:30:11.857Z,1018.56
2017-12-04T07:31:11.847Z,1018.55
2017-12-04T07:32:11.837Z,1018.54
2017-12-04T07:33:11.839Z,1018.56
2017-12-04T07:34:11.831Z,1018.58
2017-12-04T07:35:11.805Z,1018.59
2017-12-04T07:36:11.794Z,1018.63
2017-12-04T07:37:11.784Z,1018.66
2017-12-04T07:38:11.769Z,1018.65
2017-12-04T07:39:11.762Z,1018.67
2017-12-04T07:40:11.751Z,1018.66
2017-12-04T07:41:11.741Z,1018.65
2017-12-04T07:42:11.731Z,1018.73
2017-12-04T07:43:11.716Z,1018.75
2017-12-04T07:44:11.707Z,1018.70
2017-12-04T07:45:11.697Z,1018.76
2017-12-04T07:46:11.688Z,1018.76
2017-12-04T07:47:11.673Z,1018.75
2017-12-04T07:48:11.664Z,1018.74
2017-12-04T07:49:11.655Z,1018.73
2017-12-04T07:50:11.640Z,1018.75
2017-12-04T07:51:11.636Z,1018.70
2017-12-04T07:52:11.630Z,1018.73
2017-12-04T07:53:11.611Z,1018.67
2017-12-04T07:54:11.598Z,1018.72
2017-12-04T07:55:11.588Z,1018.70
2017-12-04T07:56:11.576Z,1018.69
2017-12-04T07:57:11.566Z,1018.70
2017-12-04T07:58:11.555Z,1018.75
2017-12-04T07:59:11.543Z,1018.70
2017-12-04T08:00:11.535Z,1018.70
2017-12-04T08:01:11.521Z,1018.75
2017-12-04T08:02:11.522Z,1018.73
2017-12-04T08:03:11.502Z,1018.76
2017-12-04T08:04:11.493Z,1018.78
2017-12-04T08:05:11.480Z,1018.76
2017-12-04T08:06:11.472Z,1018.77
2017-12-04T08:07:11.985Z,1018.76
2017-12-04T08:08:11.459Z,1018.79
2017-12-04T08:09:11.439Z,1018.79
2017-12-04T08:10:11.426Z,1018.77
2017-12-04T08:11:11.420Z,1018.79
2017-12-04T08:12:11.407Z,1018.79
2017-12-04T08:13:11.395Z,1018.75
2017-12-04T08:14:11.383Z,1018.77
2017-12-04T08:15:11.378Z,1018.83
2017-12-04T08:16:11.362Z,1018.83
2017-12-04T08:17:11.350Z,1018.78
2017-12-04T08:18:11.351Z,1018.81
2017-12-04T08:19:11.331Z,1018.79
2017-12-04T08:20:11.318Z,1018.83
2017-12-04T08:21:11.316Z,1018.80
2017-12-04T08:22:11.296Z,1018.82
2017-12-04T08:23:11.287Z,1018.84
2017-12-04T08:24:11.276Z,1018.83
2017-12-04T08:25:11.268Z,1018.87
2017-12-04T08:26:11.254Z,1018.93
2017-12-04T08:27:11.243Z,1019.00
2017-12-04T08:28:11.234Z,1018.97
2017-12-04T08:29:11.222Z,1019.02
2017-12-04T08:30:11.211Z,1019.05
2017-12-04T08:31:11.203Z,1019.03
2017-12-04T08:32:11.189Z,1019.03
2017-12-04T08:33:11.180Z,1019.07
2017-12-04T08:34:11.168Z,1019.11
2017-12-04T08:35:11.161Z,1019.08
2017-12-04T08:36:11.148Z,1019.14
2017-12-04T08:37:11.141Z,1019.13
2017-12-04T08:38:11.127Z,1019.13
2017-12-04T08:39:11.117Z,1019.09
2017-12-04T08:40:11.105Z,1019.11
2017-12-04T08:41:11.097Z,1019.15
2017-12-04T08:42:11.082Z,1019.17
2017-12-04T08:43:11.077Z,1019.23
2017-12-04T08:44:11.066Z,1019.17
2017-12-04T08:45:11.058Z,1019.22
2017-12-04T08:46:11.043Z,1019.20
2017-12-04T08:47:11.057Z,1019.25
2017-12-04T08:48:11.019Z,1019.25
2017-12-04T08:49:11.025Z,1019.26
2017-12-04T08:50:10.998Z,1019.27
2017-12-04T08:51:10.988Z,1019.22
2017-12-04T08:52:10.979Z,1019.26
2017-12-04T08:53:10.967Z,1019.31
2017-12-04T08:54:10.966Z,1019.32
2017-12-04T08:55:10.956Z,1019.39
2017-12-04T08:56:10.939Z,1019.38
2017-12-04T08:57:10.928Z,1019.46
2017-12-04T08:58:10.915Z,1019.47
2017-12-04T08:59:10.902Z,1019.47
2017-12-04T09:00:10.898Z,1019.53
2017-12-04T09:01:10.884Z,1019.55
2017-12-04T09:02:10.870Z,1019.56
2017-12-04T09:03:10.863Z,1019.56
2017-12-04T09:04:10.850Z,1019.62
2017-12-04T09:05:10.840Z,1019.61
2017-12-04T09:06:10.828Z,1019.67
2017-12-04T09:07:10.820Z,1019.68
2017-12-04T09:08:10.810Z,1019.76
2017-12-04T09:09:10.800Z,1019.79
2017-12-04T09:10:10.788Z,1019.75
2017-12-04T09:11:10.777Z,1019.70
2017-12-04T09:12:10.768Z,1019.79
2017-12-04T09:13:10.757Z,1019.81
2017-12-04T09:14:10.743Z,1019.79
2017-12-04T09:15:10.736Z,1019.83
2017-12-04T09:16:10.726Z,1019.79
2017-12-04T09:17:10.714Z,1019.86
2017-12-04T09:18:10.703Z,1019.88
2017-12-04T09:19:10.692Z,1019.88
2017-12-04T09:20:10.685Z,1019.87
2017-12-04T09:21:10.672Z,1019.93
2017-12-04T09:22:10.661Z,1019.94
2017-12-04T09:23:10.652Z,1019.97
2017-12-04T09:24:10.659Z,1020.00
2017-12-04T09:25:10.630Z,1020.06
2017-12-04T09:26:10.858Z,1019.98
2017-12-04T09:27:10.610Z,1019.97
2017-12-04T09:28:10.600Z,1019.83
2017-12-04T09:29:10.592Z,1019.82
2017-12-04T09:30:10.581Z,1019.99
2017-12-04T09:31:10.567Z,1019.99
2017-12-04T09:32:10.556Z,1019.98
2017-12-04T09:33:10.560Z,1019.98
2017-12-04T09:34:10.536Z,1020.00
2017-12-04T09:35:10.526Z,1020.03
2017-12-04T09:36:10.513Z,1020.09
2017-12-04T09:37:10.557Z,1020.07
2017-12-04T09:38:10.495Z,1020.09
2017-12-04T09:39:10.483Z,1020.07
2017-12-04T09:40:10.473Z,1020.08
2017-12-04T09:41:10.462Z,1020.09
2017-12-04T09:42:10.451Z,1020.11
2017-12-04T09:43:10.441Z,1020.14
2017-12-04T09:44:10.431Z,1020.16
2017-12-04T09:45:10.421Z,1020.17
2017-12-04T09:46:10.408Z,1020.14
2017-12-04T09:47:10.398Z,1020.15
2017-12-04T09:48:10.396Z,1020.20
2017-12-04T09:49:10.379Z,1020.22
2017-12-04T09:50:10.367Z,1020.24
2017-12-04T09:51:10.357Z,1020.27
2017-12-04T09:52:10.357Z,1020.28
2017-12-04T09:53:10.338Z,1020.29
2017-12-04T09:54:10.328Z,1020.28
2017-12-04T09:55:10.314Z,1020.32
2017-12-04T09:56:10.309Z,1020.27
2017-12-04T09:57:10.294Z,1020.30
2017-12-04T09:58:10.287Z,1020.33
2017-12-04T09:59:10.273Z,1020.31
2017-12-04T10:00:10.269Z,1020.34
2017-12-04T10:01:10.253Z,1020.31
2017-12-04T10:02:10.242Z,1020.26
2017-12-04T10:03:10.247Z,1020.29
2017-12-04T10:04:10.221Z,1020.32
2017-12-04T10:05:10.212Z,1020.33
2017-12-04T10:06:10.203Z,1020.34
2017-12-04T10:07:10.189Z,1020.39
2017-12-04T10:08:10.179Z,1020.36
2017-12-04T10:09:10.168Z,1020.35
2017-12-04T10:10:10.158Z,1020.28
2017-12-04T10:11:10.151Z,1020.35
2017-12-04T10:12:10.139Z,1020.31
2017-12-04T10:13:10.128Z,1020.31
2017-12-04T10:14:10.117Z,1020.29
2017-12-04T10:15:10.107Z,1020.33
2017-12-04T10:16:10.095Z,1020.29
2017-12-04T10:17:10.086Z,1020.33
2017-12-04T10:18:10.079Z,1020.33
2017-12-04T10:19:10.078Z,1020.31
2017-12-04T10:20:10.056Z,1020.32
2017-12-04T10:21:10.045Z,1020.32
2017-12-04T10:22:10.043Z,1020.33
2017-12-04T10:23:10.024Z,1020.32
2017-12-04T10:24:10.014Z,1020.37
2017-12-04T10:25:10.007Z,1020.37
2017-12-04T10:26:09.993Z,1020.36
2017-12-04T10:27:09.991Z,1020.30
2017-12-04T10:28:09.973Z,1020.37
2017-12-04T10:29:09.963Z,1020.32
2017-12-04T10:30:09.951Z,1020.32
2017-12-04T10:31:09.941Z,1020.26
2017-12-04T10:32:09.932Z,1020.29
2017-12-04T10:33:09.926Z,1020.32
2017-12-04T10:34:09.909Z,1020.32
2017-12-04T10:35:09.900Z,1020.38
2017-12-04T10:36:09.891Z,1020.32
2017-12-04T10:37:09.880Z,1020.30
2017-12-04T10:38:09.869Z,1020.33
2017-12-04T10:39:09.864Z,1020.32
2017-12-04T10:40:09.849Z,1020.31
2017-12-04T10:41:09.840Z,1020.31
2017-12-04T10:42:09.830Z,1020.29
2017-12-04T10:43:09.820Z,1020.29
2017-12-04T10:44:09.809Z,1020.33
2017-12-04T10:45:09.802Z,1020.30
2017-12-04T10:46:09.789Z,1020.30
2017-12-04T10:47:09.781Z,1020.31
2017-12-04T10:48:09.769Z,1020.33
2017-12-04T10:49:09.761Z,1020.30
2017-12-04T10:50:09.772Z,1020.38
2017-12-04T10:51:09.754Z,1020.41
2017-12-04T10:52:09.729Z,1020.44
2017-12-04T10:53:09.724Z,1020.43
2017-12-04T10:54:09.711Z,1020.52
2017-12-04T10:55:09.698Z,1020.50
2017-12-04T10:56:09.687Z,1020.54
2017-12-04T10:57:09.681Z,1020.51
2017-12-04T10:58:09.668Z,1020.53
2017-12-04T10:59:09.657Z,1020.57
2017-12-04T11:00:09.650Z,1020.56
2017-12-04T11:01:09.637Z,1020.57
2017-12-04T11:02:09.625Z,1020.57
2017-12-04T11:03:09.615Z,1020.60
2017-12-04T11:04:09.604Z,1020.63
2017-12-04T11:05:09.599Z,1020.63
2017-12-04T11:06:09.584Z,1020.63
2017-12-04T11:07:09.574Z,1020.64
2017-12-04T11:08:09.563Z,1020.64
2017-12-04T11:09:09.553Z,1020.68
2017-12-04T11:10:09.544Z,1020.65
2017-12-04T11:11:09.537Z,1020.63
2017-12-04T11:12:09.523Z,1020.58
2017-12-04T11:13:09.512Z,1020.55
2017-12-04T11:14:09.502Z,1020.48
2017-12-04T11:15:09.494Z,1020.39
2017-12-04T11:16:09.483Z,1020.37
2017-12-04T11:17:09.474Z,1020.33
2017-12-04T11:18:09.460Z,1020.39
2017-12-04T11:19:09.451Z,1020.40
2017-12-04T11:20:09.441Z,1020.35
2017-12-04T11:21:09.434Z,1020.37
2017-12-04T11:22:09.421Z,1020.38
2017-12-04T11:23:09.413Z,1020.37
2017-12-04T11:24:09.400Z,1020.38
2017-12-04T11:25:09.391Z,1020.36
2017-12-04T11:26:09.397Z,1020.42
2017-12-04T11:27:09.372Z,1020.40
2017-12-04T11:28:09.360Z,1020.45
2017-12-04T11:29:09.357Z,1020.45
2017-12-04T11:30:09.339Z,1020.47
2017-12-04T11:31:09.333Z,1020.41
2017-12-04T11:32:09.320Z,1020.42
2017-12-04T11:33:09.311Z,1020.42
2017-12-04T11:34:09.298Z,1020.45
2017-12-04T11:35:09.289Z,1020.41
2017-12-04T11:36:09.285Z,1020.45
2017-12-04T11:37:09.270Z,1020.43
2017-12-04T11:38:09.259Z,1020.41
2017-12-04T11:39:09.250Z,1020.44
2017-12-04T11:40:09.238Z,1020.42
2017-12-04T11:41:09.230Z,1020.39
2017-12-04T11:42:09.221Z,1020.37
2017-12-04T11:43:09.213Z,1020.35
2017-12-04T11:44:09.200Z,1020.37
2017-12-04T11:45:09.188Z,1020.42
2017-12-04T11:46:09.180Z,1020.41
2017-12-04T11:47:09.171Z,1020.42
2017-12-04T11:48:09.163Z,1020.44
2017-12-04T11:49:09.153Z,1020.42
2017-12-04T11:50:09.139Z,1020.44
2017-12-04T11:51:09.133Z,1020.41
2017-12-04T11:52:09.121Z,1020.44
2017-12-04T11:53:09.110Z,1020.41
2017-12-04T11:54:09.102Z,1020.41
2017-12-04T11:55:09.090Z,1020.38
2017-12-04T11:56:09.083Z,1020.37
2017-12-04T11:57:09.073Z,1020.36
2017-12-04T11:58:09.070Z,1020.40
2017-12-04T11:59:09.053Z,1020.29
2017-12-04T12:00:09.052Z,1020.29
2017-12-04T12:01:09.054Z,1020.26
2017-12-04T12:02:09.033Z,1020.28
2017-12-04T12:03:09.013Z,1020.25
2017-12-04T12:04:09.004Z,1020.26
2017-12-04T12:05:08.994Z,1020.28